Terminal Aerodrome Forecast
Issued by NWS Upton, NY

Home | Current Version | Previous Version | Text Only | Print | Product List | Glossary On
Versions: 1 2 3 4 5 6 7 8 9 10 11 12 13 14 15 16 17 18 19 20 21 22 23 24 25 26
000
FTUS41 KOKX 260200 AAA
TAFISP
TAF AMD
KISP 260204Z 2602/2624 28009KT P6SM SKC
     FM260400 28006KT P6SM SKC
     FM261400 27011KT P6SM FEW025
     FM262200 26007KT P6SM SKC=

USA.gov is the U.S. government's official web portal to all federal, state and local government web resources and services.